Dan Fighter — OVUE2 — position and weather

sailwx.info

Track history (hours):
 
Tides and Currents Weather Stations Pressure Air Temp Water Temp Dewpoint Dewpoint Depression Visibility Wind Speed Wind Dir Waves Ship Positions

Dan Fighter

Last reported at 2015-May-29 04:22 UTC. Time now 2015-May-29 20:29 UTC.
Position N 57°46' E 010°35'.

Length 64 m; draft 3.1 m.

Type: Cargo ship. MMSI: 220386978.

Date/timePositionNaut miles runAvg speedWind from/ knotsBaromVisibWave heightAir tempDewpointWater temp
2015-May-29 04:22N 57°46' E 010°35'5 6.3
2015-May-29 03:33N 57°46' E 010°44'9 8.4
2015-May-29 02:31N 57°37' E 010°45'8 8.5
2015-May-29 01:33N 57°29' E 010°45'8 8.0
2015-May-29 00:33N 57°21' E 010°45'91 7.9
2015-May-28 13:07N 55°58' E 011°50'3 4.8
2015-May-28 12:33N 55°56' E 011°53'5 4.6
2015-May-28 11:33N 55°58' E 012°01'0 0.0
2015-May-28 10:33N 55°58' E 012°01'0 0.0
2015-May-28 09:33N 55°58' E 012°01'0 0.0
2015-May-28 08:12N 55°58' E 012°01'0 0.0
2015-May-28 07:27N 55°58' E 012°01'0 0.0
2015-May-28 06:33N 55°58' E 012°01'0 0.0
2015-May-28 01:27N 55°58' E 012°01'0 0.0
2015-May-27 11:09N 55°58' E 012°01'0 0.0
2015-May-26 20:32N 55°58' E 012°01'6 5.9
2015-May-26 19:33N 55°55' E 011°51'  
2015-May-24 12:13N 56°25' E 010°56'0 0.0
2015-May-24 11:31N 56°25' E 010°56'56 4.6
2015-May-23 23:32N 57°20' E 010°43'7 6.3
2015-May-23 22:28N 57°27' E 010°44'6 6.3
2015-May-23 21:33N 57°33' E 010°45'6 5.9
2015-May-23 20:33N 57°39' E 010°45'6 5.8
2015-May-23 19:33N 57°44' E 010°44'6 6.3
2015-May-23 18:33N 57°46' E 010°33'7 7.3
2015-May-23 17:33N 57°46' E 010°19'6 6.4
2015-May-23 16:33N 57°46' E 010°07'7 6.6
2015-May-23 15:33N 57°47' E 009°55'6 6.6
2015-May-23 14:33N 57°49' E 009°43'8 6.9
2015-May-23 13:24N 57°50' E 009°28'6 6.9
2015-May-23 12:33N 57°50' E 009°17'9 6.7
2015-May-23 11:10N 57°50' E 008°60'80 6.7
2015-May-22 23:06N 58°01' E 006°30'4 6.5
2015-May-22 22:33N 58°03' E 006°25'7 6.5
2015-May-22 21:32N 58°08' E 006°15'7 7.0
2015-May-22 20:33N 58°12' E 006°06'8 7.7
2015-May-22 19:33N 58°17' E 005°55'8 8.0
2015-May-22 18:33N 58°23' E 005°44'8 7.6
2015-May-22 17:30N 58°30' E 005°35'15 7.6
2015-May-22 15:31N 58°44' E 005°24'8 8.5
2015-May-22 14:33N 58°52' E 005°20'8 7.8
2015-May-22 13:33N 58°59' E 005°18'7 7.1
2015-May-22 12:33N 59°06' E 005°20'8 7.9
2015-May-22 11:33N 59°14' E 005°20'8 2.6
2015-May-22 08:31N 59°22' E 005°18'0 0.0
2015-May-22 07:31N 59°22' E 005°18'0 0.0
2015-May-22 06:28N 59°22' E 005°18'0 0.0
2015-May-22 05:31N 59°22' E 005°18'0 0.0
2015-May-22 04:31N 59°22' E 005°18'0 0.0
2015-May-22 03:31N 59°22' E 005°17'0 0.0
2015-May-22 02:16N 59°22' E 005°18'0 0.0
2015-May-22 01:31N 59°22' E 005°18'6 0.4
2015-May-21 10:29N 59°27' E 005°10'  
Track history (hours):
 
Tides and Currents Weather Stations Pressure Air Temp Water Temp Dewpoint Dewpoint Depression Visibility Wind Speed Wind Dir Waves Ship Positions

Dan Fighter

Last reported at 2015-May-29 04:22 UTC. Time now 2015-May-29 20:29 UTC.
Position N 57°46' E 010°35'.

Length 64 m; draft 3.1 m.

Type: Cargo ship. MMSI: 220386978.

Date/timePositionNaut miles runAvg speedWind from/ knotsBaromVisibWave heightAir tempDewpointWater temp
2015-May-29 04:22N 57°46' E 010°35'5 6.3
2015-May-29 03:33N 57°46' E 010°44'9 8.4
2015-May-29 02:31N 57°37' E 010°45'8 8.5
2015-May-29 01:33N 57°29' E 010°45'8 8.0
2015-May-29 00:33N 57°21' E 010°45'91 7.9
2015-May-28 13:07N 55°58' E 011°50'3 4.8
2015-May-28 12:33N 55°56' E 011°53'5 4.6
2015-May-28 11:33N 55°58' E 012°01'0 0.0
2015-May-28 10:33N 55°58' E 012°01'0 0.0
2015-May-28 09:33N 55°58' E 012°01'0 0.0
2015-May-28 08:12N 55°58' E 012°01'0 0.0
2015-May-28 07:27N 55°58' E 012°01'0 0.0
2015-May-28 06:33N 55°58' E 012°01'0 0.0
2015-May-28 01:27N 55°58' E 012°01'0 0.0
2015-May-27 11:09N 55°58' E 012°01'0 0.0
2015-May-26 20:32N 55°58' E 012°01'6 5.9
2015-May-26 19:33N 55°55' E 011°51'  
2015-May-24 12:13N 56°25' E 010°56'0 0.0
2015-May-24 11:31N 56°25' E 010°56'56 4.6
2015-May-23 23:32N 57°20' E 010°43'7 6.3
2015-May-23 22:28N 57°27' E 010°44'6 6.3
2015-May-23 21:33N 57°33' E 010°45'6 5.9
2015-May-23 20:33N 57°39' E 010°45'6 5.8
2015-May-23 19:33N 57°44' E 010°44'6 6.3
2015-May-23 18:33N 57°46' E 010°33'7 7.3
2015-May-23 17:33N 57°46' E 010°19'6 6.4
2015-May-23 16:33N 57°46' E 010°07'7 6.6
2015-May-23 15:33N 57°47' E 009°55'6 6.6
2015-May-23 14:33N 57°49' E 009°43'8 6.9
2015-May-23 13:24N 57°50' E 009°28'6 6.9
2015-May-23 12:33N 57°50' E 009°17'9 6.7
2015-May-23 11:10N 57°50' E 008°60'80 6.7
2015-May-22 23:06N 58°01' E 006°30'4 6.5
2015-May-22 22:33N 58°03' E 006°25'7 6.5
2015-May-22 21:32N 58°08' E 006°15'7 7.0
2015-May-22 20:33N 58°12' E 006°06'8 7.7
2015-May-22 19:33N 58°17' E 005°55'8 8.0
2015-May-22 18:33N 58°23' E 005°44'8 7.6
2015-May-22 17:30N 58°30' E 005°35'15 7.6
2015-May-22 15:31N 58°44' E 005°24'8 8.5
2015-May-22 14:33N 58°52' E 005°20'8 7.8
2015-May-22 13:33N 58°59' E 005°18'7 7.1
2015-May-22 12:33N 59°06' E 005°20'8 7.9
2015-May-22 11:33N 59°14' E 005°20'8 2.6
2015-May-22 08:31N 59°22' E 005°18'0 0.0
2015-May-22 07:31N 59°22' E 005°18'0 0.0
2015-May-22 06:28N 59°22' E 005°18'0 0.0
2015-May-22 05:31N 59°22' E 005°18'0 0.0
2015-May-22 04:31N 59°22' E 005°18'0 0.0
2015-May-22 03:31N 59°22' E 005°17'0 0.0
2015-May-22 02:16N 59°22' E 005°18'0 0.0
2015-May-22 01:31N 59°22' E 005°18'6 0.4
2015-May-21 10:29N 59°27' E 005°10'  

Dump ship's entire track history